Messwerte Pasco

Temperatur

Temperatur
°C
1573567200 6.00 6.00 1
1573570800 7.00 7.00 2
1573574400 8.00 8.00 2
1573578000 9.00 9.00 2
1573581600 10.00 10.00
1573585200 11.00 11.00 3
1573588800 12.00 12.00 3
1573592400 13.00 13.00 4
1573596000 14.00 14.00 5
1573599600 15.00 15.00 6
1573603200 16.00 16.00
1573606800 17.00 17.00 5
1573610400 18.00 18.00 4
1573614000 19.00 19.00 4
1573617600 20.00 20.00 2
1573621200 21.00 21.00 1
1573624800 22.00 22.00 2
1573628400 23.00 23.00 3
1573632000 0.00 0.00 3
1573635600 1.00 1.00 3
1573639200 2.00 2.00 2
1573642800 3.00 3.00 1
1573646400 4.00 4.00 2
1573650000 5.00 5.00 2

Aktuellste Messwerte

Wettercharakter
Wetter: Nebel
Temperatur
3 °C
Feuchtigkeit
90 %
Wind
0 km/h, -
Luftdruck
1024 hPa
Messzeit: 13. November 2019, 6.00Datenquelle: METAR

Weitere Messstationen in der Nähe

Messstation Temperatur Entfernung
Hermiston 3 °C 50 km
Walla Walla 1 °C 66 km
Pendleton 1 °C 69 km
Meacham, Meacham 2 °C 100 km
Moses Lake 3 °C 106 km
Yakima -3 °C 113 km
Ephrata 2 °C 120 km

Wind

Windrichtung Böen Mittelwind
° km/h km/h
1573567200 6.00 5.00 - 6.00 80° 10
1573570800 7.00 6.00 - 7.00 30° 5
1573574400 8.00 7.00 - 8.00 70° 5
1573578000 9.00 8.00 - 9.00 60° 0
1573581600 10.00 9.00 - 10.00
1573585200 11.00 10.00 - 11.00 5
1573588800 12.00 11.00 - 12.00 170° 5
1573592400 13.00 12.00 - 13.00 0
1573596000 14.00 13.00 - 14.00 60° 5
1573599600 15.00 14.00 - 15.00 140° 5
1573603200 16.00 15.00 - 16.00
1573606800 17.00 16.00 - 17.00 320° 5
1573610400 18.00 17.00 - 18.00 310° 5
1573614000 19.00 18.00 - 19.00 340° 5
1573617600 20.00 19.00 - 20.00 340° 5
1573621200 21.00 20.00 - 21.00 350° 5
1573624800 22.00 21.00 - 22.00 0
1573628400 23.00 22.00 - 23.00 310° 5
1573632000 0.00 23.00 - 0.00 300° 5
1573635600 1.00 0.00 - 1.00 320° 10
1573639200 2.00 1.00 - 2.00 340° 10
1573642800 3.00 2.00 - 3.00 330° 10
1573646400 4.00 3.00 - 4.00 330° 10
1573650000 5.00 4.00 - 5.00 350° 5

Ihre Wetterstation

Fehlt Ihre Wetterstation auf unserem Portal?

Schreiben Sie an network@meteonews.ch

Klima

Wann ist es am wärmsten? Wann regnet es am wenigsten? Unsere Klimadaten geben Auskunft.